sensor_id;sensor_type;location;lat;lon;timestamp;P1;durP1;ratioP1;P2;durP2;ratioP2
3487;SDS011;38546;48.170;11.724;2023-05-20T00:01:53;11.87;;;8.60;;
3487;SDS011;38546;48.170;11.724;2023-05-20T00:04:42;8.60;;;7.60;;
3487;SDS011;38546;48.170;11.724;2023-05-20T00:07:32;10.00;;;7.83;;
3487;SDS011;38546;48.170;11.724;2023-05-20T00:10:21;8.50;;;7.47;;
3487;SDS011;38546;48.170;11.724;2023-05-20T00:13:10;9.70;;;8.27;;
3487;SDS011;38546;48.170;11.724;2023-05-20T00:16:00;12.30;;;8.50;;
3487;SDS011;38546;48.170;11.724;2023-05-20T00:18:49;11.67;;;8.20;;
3487;SDS011;38546;48.170;11.724;2023-05-20T00:21:39;13.83;;;9.23;;
3487;SDS011;38546;48.170;11.724;2023-05-20T00:24:28;12.10;;;8.57;;
3487;SDS011;38546;48.170;11.724;2023-05-20T00:27:17;8.40;;;7.03;;
3487;SDS011;38546;48.170;11.724;2023-05-20T00:30:06;8.90;;;7.70;;
3487;SDS011;38546;48.170;11.724;2023-05-20T00:32:56;12.20;;;8.67;;
3487;SDS011;38546;48.170;11.724;2023-05-20T00:35:46;9.73;;;8.17;;
3487;SDS011;38546;48.170;11.724;2023-05-20T00:38:35;11.33;;;8.13;;
3487;SDS011;38546;48.170;11.724;2023-05-20T00:41:24;8.27;;;6.50;;
3487;SDS011;38546;48.170;11.724;2023-05-20T00:44:13;11.87;;;9.10;;
3487;SDS011;38546;48.170;11.724;2023-05-20T00:47:03;15.30;;;8.20;;
3487;SDS011;38546;48.170;11.724;2023-05-20T00:49:53;9.90;;;7.10;;
3487;SDS011;38546;48.170;11.724;2023-05-20T00:52:42;8.67;;;7.77;;
3487;SDS011;38546;48.170;11.724;2023-05-20T00:55:34;11.23;;;7.90;;
3487;SDS011;38546;48.170;11.724;2023-05-20T00:58:24;14.13;;;9.87;;
3487;SDS011;38546;48.170;11.724;2023-05-20T01:01:14;12.30;;;9.53;;
3487;SDS011;38546;48.170;11.724;2023-05-20T01:04:03;12.80;;;9.10;;
3487;SDS011;38546;48.170;11.724;2023-05-20T01:06:53;14.13;;;8.37;;
3487;SDS011;38546;48.170;11.724;2023-05-20T01:09:43;11.77;;;8.53;;
3487;SDS011;38546;48.170;11.724;2023-05-20T01:12:38;13.00;;;7.73;;
3487;SDS011;38546;48.170;11.724;2023-05-20T01:15:31;10.00;;;7.47;;
3487;SDS011;38546;48.170;11.724;2023-05-20T01:18:22;13.27;;;8.93;;
3487;SDS011;38546;48.170;11.724;2023-05-20T01:21:14;11.27;;;9.17;;
3487;SDS011;38546;48.170;11.724;2023-05-20T01:24:04;15.50;;;10.90;;
3487;SDS011;38546;48.170;11.724;2023-05-20T01:26:54;13.77;;;10.80;;
3487;SDS011;38546;48.170;11.724;2023-05-20T01:29:45;14.93;;;9.33;;
3487;SDS011;38546;48.170;11.724;2023-05-20T01:32:41;12.53;;;8.33;;
3487;SDS011;38546;48.170;11.724;2023-05-20T01:36:05;11.47;;;9.80;;
3487;SDS011;38546;48.170;11.724;2023-05-20T01:38:56;13.13;;;9.03;;
3487;SDS011;38546;48.170;11.724;2023-05-20T01:41:47;11.80;;;9.40;;
3487;SDS011;38546;48.170;11.724;2023-05-20T01:44:38;16.00;;;9.67;;
3487;SDS011;38546;48.170;11.724;2023-05-20T01:47:27;13.73;;;10.27;;
3487;SDS011;38546;48.170;11.724;2023-05-20T01:50:17;14.50;;;8.90;;
3487;SDS011;38546;48.170;11.724;2023-05-20T01:53:07;15.33;;;9.43;;
3487;SDS011;38546;48.170;11.724;2023-05-20T01:55:57;13.97;;;9.97;;
3487;SDS011;38546;48.170;11.724;2023-05-20T01:58:46;12.07;;;9.20;;
3487;SDS011;38546;48.170;11.724;2023-05-20T02:01:35;11.27;;;8.90;;
3487;SDS011;38546;48.170;11.724;2023-05-20T02:04:25;19.13;;;11.10;;
3487;SDS011;38546;48.170;11.724;2023-05-20T02:07:15;13.87;;;10.33;;
3487;SDS011;38546;48.170;11.724;2023-05-20T02:10:06;16.67;;;11.40;;
3487;SDS011;38546;48.170;11.724;2023-05-20T02:12:56;17.43;;;10.90;;
3487;SDS011;38546;48.170;11.724;2023-05-20T02:15:47;15.53;;;10.90;;
3487;SDS011;38546;48.170;11.724;2023-05-20T02:18:36;20.13;;;12.40;;
3487;SDS011;38546;48.170;11.724;2023-05-20T02:21:26;14.30;;;11.33;;
3487;SDS011;38546;48.170;11.724;2023-05-20T02:24:15;14.80;;;10.03;;
3487;SDS011;38546;48.170;11.724;2023-05-20T02:27:05;18.70;;;11.90;;
3487;SDS011;38546;48.170;11.724;2023-05-20T02:29:54;20.73;;;12.77;;
3487;SDS011;38546;48.170;11.724;2023-05-20T02:32:44;18.20;;;12.40;;
3487;SDS011;38546;48.170;11.724;2023-05-20T02:35:34;20.30;;;12.43;;
3487;SDS011;38546;48.170;11.724;2023-05-20T02:38:24;17.63;;;12.30;;
3487;SDS011;38546;48.170;11.724;2023-05-20T02:41:14;16.80;;;11.83;;
3487;SDS011;38546;48.170;11.724;2023-05-20T02:44:03;22.60;;;13.70;;
3487;SDS011;38546;48.170;11.724;2023-05-20T02:46:53;16.67;;;11.23;;
3487;SDS011;38546;48.170;11.724;2023-05-20T02:49:41;15.60;;;12.20;;
3487;SDS011;38546;48.170;11.724;2023-05-20T02:52:31;18.87;;;12.80;;
3487;SDS011;38546;48.170;11.724;2023-05-20T02:55:20;16.63;;;11.70;;
3487;SDS011;38546;48.170;11.724;2023-05-20T02:58:11;19.07;;;11.80;;
3487;SDS011;38546;48.170;11.724;2023-05-20T03:01:01;17.80;;;12.87;;
3487;SDS011;38546;48.170;11.724;2023-05-20T03:03:50;18.73;;;11.80;;
3487;SDS011;38546;48.170;11.724;2023-05-20T03:06:40;17.73;;;12.60;;
3487;SDS011;38546;48.170;11.724;2023-05-20T03:09:32;16.23;;;11.47;;
3487;SDS011;38546;48.170;11.724;2023-05-20T03:12:21;16.63;;;11.30;;
3487;SDS011;38546;48.170;11.724;2023-05-20T03:15:13;14.77;;;9.90;;
3487;SDS011;38546;48.170;11.724;2023-05-20T03:18:03;17.17;;;12.13;;
3487;SDS011;38546;48.170;11.724;2023-05-20T03:20:54;18.30;;;11.50;;
3487;SDS011;38546;48.170;11.724;2023-05-20T03:23:44;15.77;;;10.33;;
3487;SDS011;38546;48.170;11.724;2023-05-20T03:26:34;17.30;;;11.60;;
3487;SDS011;38546;48.170;11.724;2023-05-20T03:29:25;17.13;;;10.53;;
3487;SDS011;38546;48.170;11.724;2023-05-20T03:32:15;21.43;;;14.43;;
3487;SDS011;38546;48.170;11.724;2023-05-20T03:35:04;26.33;;;14.43;;
3487;SDS011;38546;48.170;11.724;2023-05-20T03:37:55;23.30;;;14.20;;
3487;SDS011;38546;48.170;11.724;2023-05-20T03:40:46;20.83;;;13.13;;
3487;SDS011;38546;48.170;11.724;2023-05-20T03:43:35;21.83;;;14.83;;
3487;SDS011;38546;48.170;11.724;2023-05-20T03:46:25;24.23;;;15.33;;
3487;SDS011;38546;48.170;11.724;2023-05-20T03:49:14;17.63;;;12.63;;
3487;SDS011;38546;48.170;11.724;2023-05-20T03:52:04;23.60;;;15.10;;
3487;SDS011;38546;48.170;11.724;2023-05-20T03:54:53;20.07;;;14.20;;
3487;SDS011;38546;48.170;11.724;2023-05-20T03:57:43;23.23;;;14.77;;
3487;SDS011;38546;48.170;11.724;2023-05-20T04:00:32;25.30;;;14.53;;
3487;SDS011;38546;48.170;11.724;2023-05-20T04:03:22;27.33;;;15.67;;
3487;SDS011;38546;48.170;11.724;2023-05-20T04:06:12;22.33;;;14.07;;
3487;SDS011;38546;48.170;11.724;2023-05-20T04:09:01;25.40;;;16.83;;
3487;SDS011;38546;48.170;11.724;2023-05-20T04:11:51;21.27;;;13.00;;
3487;SDS011;38546;48.170;11.724;2023-05-20T04:14:40;23.80;;;14.70;;
3487;SDS011;38546;48.170;11.724;2023-05-20T04:17:29;25.80;;;16.30;;
3487;SDS011;38546;48.170;11.724;2023-05-20T04:20:19;30.37;;;16.60;;
3487;SDS011;38546;48.170;11.724;2023-05-20T04:23:08;20.60;;;13.50;;
3487;SDS011;38546;48.170;11.724;2023-05-20T04:25:57;23.93;;;14.83;;
3487;SDS011;38546;48.170;11.724;2023-05-20T04:28:49;28.40;;;15.90;;
3487;SDS011;38546;48.170;11.724;2023-05-20T04:31:39;24.53;;;15.60;;
3487;SDS011;38546;48.170;11.724;2023-05-20T04:34:28;23.33;;;15.00;;
3487;SDS011;38546;48.170;11.724;2023-05-20T04:37:17;24.20;;;15.93;;
3487;SDS011;38546;48.170;11.724;2023-05-20T04:40:07;24.23;;;15.60;;
3487;SDS011;38546;48.170;11.724;2023-05-20T04:42:59;24.23;;;15.10;;
3487;SDS011;38546;48.170;11.724;2023-05-20T04:45:49;27.00;;;15.10;;
3487;SDS011;38546;48.170;11.724;2023-05-20T04:48:40;27.73;;;16.50;;
3487;SDS011;38546;48.170;11.724;2023-05-20T04:51:31;32.40;;;19.10;;
3487;SDS011;38546;48.170;11.724;2023-05-20T04:54:23;26.53;;;16.03;;
3487;SDS011;38546;48.170;11.724;2023-05-20T04:57:12;33.17;;;18.03;;
3487;SDS011;38546;48.170;11.724;2023-05-20T05:00:02;29.37;;;16.40;;
3487;SDS011;38546;48.170;11.724;2023-05-20T05:02:55;26.23;;;17.00;;
3487;SDS011;38546;48.170;11.724;2023-05-20T05:05:44;32.43;;;16.20;;
3487;SDS011;38546;48.170;11.724;2023-05-20T05:08:33;27.33;;;16.67;;
3487;SDS011;38546;48.170;11.724;2023-05-20T05:11:23;25.20;;;16.67;;
3487;SDS011;38546;48.170;11.724;2023-05-20T05:14:12;28.33;;;16.27;;
3487;SDS011;38546;48.170;11.724;2023-05-20T05:17:01;32.93;;;17.70;;
3487;SDS011;38546;48.170;11.724;2023-05-20T05:19:50;37.67;;;19.70;;
3487;SDS011;38546;48.170;11.724;2023-05-20T05:22:40;27.27;;;16.43;;
3487;SDS011;38546;48.170;11.724;2023-05-20T05:25:29;29.70;;;16.97;;
3487;SDS011;38546;48.170;11.724;2023-05-20T05:28:19;32.37;;;19.43;;
3487;SDS011;38546;48.170;11.724;2023-05-20T05:31:08;28.17;;;16.83;;
3487;SDS011;38546;48.170;11.724;2023-05-20T05:33:58;29.60;;;17.40;;
3487;SDS011;38546;48.170;11.724;2023-05-20T05:36:47;27.97;;;16.20;;
3487;SDS011;38546;48.170;11.724;2023-05-20T05:39:36;27.00;;;16.43;;
3487;SDS011;38546;48.170;11.724;2023-05-20T05:42:26;28.60;;;16.77;;
3487;SDS011;38546;48.170;11.724;2023-05-20T05:45:15;26.50;;;15.50;;
3487;SDS011;38546;48.170;11.724;2023-05-20T05:48:04;29.80;;;15.63;;
3487;SDS011;38546;48.170;11.724;2023-05-20T05:50:53;24.07;;;15.20;;
3487;SDS011;38546;48.170;11.724;2023-05-20T05:53:43;31.17;;;20.67;;
3487;SDS011;38546;48.170;11.724;2023-05-20T05:56:32;28.43;;;16.47;;
3487;SDS011;38546;48.170;11.724;2023-05-20T05:59:21;27.80;;;17.27;;
3487;SDS011;38546;48.170;11.724;2023-05-20T06:02:10;24.97;;;16.30;;
3487;SDS011;38546;48.170;11.724;2023-05-20T06:05:02;19.57;;;15.30;;
3487;SDS011;38546;48.170;11.724;2023-05-20T06:07:53;21.07;;;14.73;;
3487;SDS011;38546;48.170;11.724;2023-05-20T06:10:45;22.20;;;14.07;;
3487;SDS011;38546;48.170;11.724;2023-05-20T06:13:36;20.20;;;13.97;;
3487;SDS011;38546;48.170;11.724;2023-05-20T06:16:26;22.60;;;13.60;;
3487;SDS011;38546;48.170;11.724;2023-05-20T06:19:15;28.83;;;17.90;;
3487;SDS011;38546;48.170;11.724;2023-05-20T06:22:04;21.77;;;14.30;;
3487;SDS011;38546;48.170;11.724;2023-05-20T06:24:54;28.07;;;16.73;;
3487;SDS011;38546;48.170;11.724;2023-05-20T06:27:44;22.03;;;14.53;;
3487;SDS011;38546;48.170;11.724;2023-05-20T06:30:32;23.80;;;15.47;;
3487;SDS011;38546;48.170;11.724;2023-05-20T06:33:25;24.77;;;15.07;;
3487;SDS011;38546;48.170;11.724;2023-05-20T06:36:15;17.33;;;12.97;;
3487;SDS011;38546;48.170;11.724;2023-05-20T06:39:04;24.13;;;15.10;;
3487;SDS011;38546;48.170;11.724;2023-05-20T06:41:59;27.37;;;16.83;;
3487;SDS011;38546;48.170;11.724;2023-05-20T06:44:48;24.93;;;15.50;;
3487;SDS011;38546;48.170;11.724;2023-05-20T06:47:36;25.40;;;14.60;;
3487;SDS011;38546;48.170;11.724;2023-05-20T06:50:25;22.47;;;14.03;;
3487;SDS011;38546;48.170;11.724;2023-05-20T06:53:15;22.30;;;14.40;;
3487;SDS011;38546;48.170;11.724;2023-05-20T06:56:04;28.37;;;17.90;;
3487;SDS011;38546;48.170;11.724;2023-05-20T06:58:54;23.30;;;14.37;;
3487;SDS011;38546;48.170;11.724;2023-05-20T07:01:43;24.90;;;15.80;;
3487;SDS011;38546;48.170;11.724;2023-05-20T07:04:31;28.87;;;18.00;;
3487;SDS011;38546;48.170;11.724;2023-05-20T07:07:20;23.87;;;17.17;;
3487;SDS011;38546;48.170;11.724;2023-05-20T07:10:09;24.33;;;16.10;;
3487;SDS011;38546;48.170;11.724;2023-05-20T07:12:58;19.07;;;14.03;;
3487;SDS011;38546;48.170;11.724;2023-05-20T07:15:48;21.37;;;15.37;;
3487;SDS011;38546;48.170;11.724;2023-05-20T07:18:38;19.83;;;14.80;;
3487;SDS011;38546;48.170;11.724;2023-05-20T07:21:27;19.27;;;13.10;;
3487;SDS011;38546;48.170;11.724;2023-05-20T07:24:15;19.27;;;14.53;;
3487;SDS011;38546;48.170;11.724;2023-05-20T07:27:05;19.63;;;13.47;;
3487;SDS011;38546;48.170;11.724;2023-05-20T07:29:54;14.00;;;10.80;;
3487;SDS011;38546;48.170;11.724;2023-05-20T07:32:44;12.47;;;10.13;;
3487;SDS011;38546;48.170;11.724;2023-05-20T07:35:32;17.73;;;11.33;;
3487;SDS011;38546;48.170;11.724;2023-05-20T07:38:22;16.90;;;11.30;;
3487;SDS011;38546;48.170;11.724;2023-05-20T07:41:11;16.43;;;10.27;;
3487;SDS011;38546;48.170;11.724;2023-05-20T07:44:01;12.27;;;9.53;;
3487;SDS011;38546;48.170;11.724;2023-05-20T07:46:52;20.23;;;11.93;;
3487;SDS011;38546;48.170;11.724;2023-05-20T07:49:42;14.03;;;10.40;;
3487;SDS011;38546;48.170;11.724;2023-05-20T07:52:31;13.17;;;11.10;;
3487;SDS011;38546;48.170;11.724;2023-05-20T07:55:20;17.60;;;10.90;;
3487;SDS011;38546;48.170;11.724;2023-05-20T07:58:09;10.70;;;8.90;;
3487;SDS011;38546;48.170;11.724;2023-05-20T08:00:59;13.20;;;9.00;;
3487;SDS011;38546;48.170;11.724;2023-05-20T08:03:47;13.27;;;9.40;;
3487;SDS011;38546;48.170;11.724;2023-05-20T08:06:37;10.70;;;9.20;;
3487;SDS011;38546;48.170;11.724;2023-05-20T08:09:27;11.20;;;8.83;;
3487;SDS011;38546;48.170;11.724;2023-05-20T08:12:19;12.67;;;9.23;;
3487;SDS011;38546;48.170;11.724;2023-05-20T08:15:09;13.10;;;8.40;;
3487;SDS011;38546;48.170;11.724;2023-05-20T08:17:59;9.73;;;7.93;;
3487;SDS011;38546;48.170;11.724;2023-05-20T08:20:48;10.67;;;8.50;;
3487;SDS011;38546;48.170;11.724;2023-05-20T08:23:38;10.00;;;7.50;;
3487;SDS011;38546;48.170;11.724;2023-05-20T08:26:27;11.40;;;8.67;;
3487;SDS011;38546;48.170;11.724;2023-05-20T08:29:16;11.10;;;8.00;;
3487;SDS011;38546;48.170;11.724;2023-05-20T08:32:06;11.03;;;8.47;;
3487;SDS011;38546;48.170;11.724;2023-05-20T08:34:55;10.13;;;7.67;;
3487;SDS011;38546;48.170;11.724;2023-05-20T08:37:45;11.70;;;9.13;;
3487;SDS011;38546;48.170;11.724;2023-05-20T08:40:34;10.90;;;7.10;;
3487;SDS011;38546;48.170;11.724;2023-05-20T08:43:24;14.07;;;7.60;;
3487;SDS011;38546;48.170;11.724;2023-05-20T08:46:14;8.57;;;6.83;;
3487;SDS011;38546;48.170;11.724;2023-05-20T08:49:05;11.07;;;7.30;;
3487;SDS011;38546;48.170;11.724;2023-05-20T08:51:55;9.63;;;7.10;;
3487;SDS011;38546;48.170;11.724;2023-05-20T08:54:46;10.73;;;7.27;;
3487;SDS011;38546;48.170;11.724;2023-05-20T08:57:37;7.77;;;5.93;;
3487;SDS011;38546;48.170;11.724;2023-05-20T09:00:29;7.50;;;6.43;;
3487;SDS011;38546;48.170;11.724;2023-05-20T09:03:19;19.90;;;7.70;;
3487;SDS011;38546;48.170;11.724;2023-05-20T09:06:09;10.13;;;7.50;;
3487;SDS011;38546;48.170;11.724;2023-05-20T09:08:59;7.03;;;6.33;;
3487;SDS011;38546;48.170;11.724;2023-05-20T09:11:49;8.40;;;6.73;;
3487;SDS011;38546;48.170;11.724;2023-05-20T09:14:38;6.30;;;5.70;;
3487;SDS011;38546;48.170;11.724;2023-05-20T09:17:27;15.13;;;6.57;;
3487;SDS011;38546;48.170;11.724;2023-05-20T09:20:19;8.67;;;5.80;;
3487;SDS011;38546;48.170;11.724;2023-05-20T09:23:10;7.90;;;5.73;;
3487;SDS011;38546;48.170;11.724;2023-05-20T09:26:00;7.60;;;6.50;;
3487;SDS011;38546;48.170;11.724;2023-05-20T09:28:50;9.30;;;5.63;;
3487;SDS011;38546;48.170;11.724;2023-05-20T09:31:40;7.43;;;6.43;;
3487;SDS011;38546;48.170;11.724;2023-05-20T09:34:29;5.90;;;5.40;;
3487;SDS011;38546;48.170;11.724;2023-05-20T09:37:20;7.27;;;6.30;;
3487;SDS011;38546;48.170;11.724;2023-05-20T09:40:10;8.70;;;5.73;;
3487;SDS011;38546;48.170;11.724;2023-05-20T09:43:02;7.60;;;6.77;;
3487;SDS011;38546;48.170;11.724;2023-05-20T09:45:54;9.67;;;6.60;;
3487;SDS011;38546;48.170;11.724;2023-05-20T09:48:44;8.17;;;5.70;;
3487;SDS011;38546;48.170;11.724;2023-05-20T09:51:34;6.30;;;5.70;;
3487;SDS011;38546;48.170;11.724;2023-05-20T09:54:24;7.03;;;6.07;;
3487;SDS011;38546;48.170;11.724;2023-05-20T09:57:14;8.70;;;7.10;;
3487;SDS011;38546;48.170;11.724;2023-05-20T10:00:04;7.60;;;6.20;;
3487;SDS011;38546;48.170;11.724;2023-05-20T10:03:00;6.20;;;5.47;;
3487;SDS011;38546;48.170;11.724;2023-05-20T10:06:00;6.23;;;5.63;;
3487;SDS011;38546;48.170;11.724;2023-05-20T10:09:33;9.00;;;5.33;;
3487;SDS011;38546;48.170;11.724;2023-05-20T10:23:01;6.27;;;5.53;;
3487;SDS011;38546;48.170;11.724;2023-05-20T10:25:52;6.30;;;4.90;;
3487;SDS011;38546;48.170;11.724;2023-05-20T10:28:44;6.17;;;5.57;;
3487;SDS011;38546;48.170;11.724;2023-05-20T10:31:42;8.73;;;5.83;;
3487;SDS011;38546;48.170;11.724;2023-05-20T10:34:43;5.47;;;4.97;;
3487;SDS011;38546;48.170;11.724;2023-05-20T10:37:42;5.50;;;5.00;;
3487;SDS011;38546;48.170;11.724;2023-05-20T10:40:33;5.50;;;5.00;;
3487;SDS011;38546;48.170;11.724;2023-05-20T10:43:26;5.57;;;5.07;;
3487;SDS011;38546;48.170;11.724;2023-05-20T10:46:16;5.90;;;5.30;;
3487;SDS011;38546;48.170;11.724;2023-05-20T10:49:16;5.80;;;4.70;;
3487;SDS011;38546;48.170;11.724;2023-05-20T10:52:07;5.77;;;5.20;;
3487;SDS011;38546;48.170;11.724;2023-05-20T10:54:58;5.07;;;4.67;;
3487;SDS011;38546;48.170;11.724;2023-05-20T10:57:48;6.10;;;5.00;;
3487;SDS011;38546;48.170;11.724;2023-05-20T11:00:39;22.77;;;13.50;;
3487;SDS011;38546;48.170;11.724;2023-05-20T11:03:28;7.80;;;5.27;;
3487;SDS011;38546;48.170;11.724;2023-05-20T11:06:18;5.27;;;4.77;;
3487;SDS011;38546;48.170;11.724;2023-05-20T11:09:07;7.40;;;5.40;;
3487;SDS011;38546;48.170;11.724;2023-05-20T11:11:57;6.20;;;5.70;;
3487;SDS011;38546;48.170;11.724;2023-05-20T11:14:47;6.63;;;5.90;;
3487;SDS011;38546;48.170;11.724;2023-05-20T11:17:37;5.50;;;4.83;;
3487;SDS011;38546;48.170;11.724;2023-05-20T11:20:26;7.13;;;6.43;;
3487;SDS011;38546;48.170;11.724;2023-05-20T11:23:16;5.80;;;5.20;;
3487;SDS011;38546;48.170;11.724;2023-05-20T11:26:05;7.87;;;6.17;;
3487;SDS011;38546;48.170;11.724;2023-05-20T11:28:55;9.27;;;6.10;;
3487;SDS011;38546;48.170;11.724;2023-05-20T11:31:46;6.90;;;5.30;;
3487;SDS011;38546;48.170;11.724;2023-05-20T11:34:38;5.00;;;4.60;;
3487;SDS011;38546;48.170;11.724;2023-05-20T11:37:27;8.13;;;5.87;;
3487;SDS011;38546;48.170;11.724;2023-05-20T11:40:17;7.20;;;6.50;;
3487;SDS011;38546;48.170;11.724;2023-05-20T11:43:13;5.13;;;4.73;;
3487;SDS011;38546;48.170;11.724;2023-05-20T11:46:03;5.40;;;4.90;;
3487;SDS011;38546;48.170;11.724;2023-05-20T11:48:53;5.27;;;4.77;;
3487;SDS011;38546;48.170;11.724;2023-05-20T11:51:44;6.90;;;5.40;;
3487;SDS011;38546;48.170;11.724;2023-05-20T11:54:34;7.53;;;5.93;;
3487;SDS011;38546;48.170;11.724;2023-05-20T11:57:23;13.80;;;6.00;;
3487;SDS011;38546;48.170;11.724;2023-05-20T12:00:13;6.07;;;5.47;;
3487;SDS011;38546;48.170;11.724;2023-05-20T12:03:03;8.23;;;6.40;;
3487;SDS011;38546;48.170;11.724;2023-05-20T12:05:52;7.03;;;6.33;;
3487;SDS011;38546;48.170;11.724;2023-05-20T12:08:42;5.90;;;5.40;;
3487;SDS011;38546;48.170;11.724;2023-05-20T12:11:35;7.27;;;5.20;;
3487;SDS011;38546;48.170;11.724;2023-05-20T12:14:28;5.33;;;4.83;;
3487;SDS011;38546;48.170;11.724;2023-05-20T12:17:17;5.97;;;5.37;;
3487;SDS011;38546;48.170;11.724;2023-05-20T12:20:06;6.37;;;5.60;;
3487;SDS011;38546;48.170;11.724;2023-05-20T12:22:58;7.97;;;5.70;;
3487;SDS011;38546;48.170;11.724;2023-05-20T12:25:48;6.53;;;5.67;;
3487;SDS011;38546;48.170;11.724;2023-05-20T12:28:37;8.97;;;7.07;;
3487;SDS011;38546;48.170;11.724;2023-05-20T12:31:27;7.60;;;6.70;;
3487;SDS011;38546;48.170;11.724;2023-05-20T12:34:16;9.03;;;6.67;;
3487;SDS011;38546;48.170;11.724;2023-05-20T12:37:05;11.17;;;7.30;;
3487;SDS011;38546;48.170;11.724;2023-05-20T12:39:54;11.20;;;8.60;;
3487;SDS011;38546;48.170;11.724;2023-05-20T12:42:44;8.87;;;7.10;;
3487;SDS011;38546;48.170;11.724;2023-05-20T12:45:33;8.80;;;7.63;;
3487;SDS011;38546;48.170;11.724;2023-05-20T12:48:22;10.73;;;8.27;;
3487;SDS011;38546;48.170;11.724;2023-05-20T12:51:11;9.40;;;7.70;;
3487;SDS011;38546;48.170;11.724;2023-05-20T12:54:00;11.17;;;7.90;;
3487;SDS011;38546;48.170;11.724;2023-05-20T12:56:49;9.60;;;8.37;;
3487;SDS011;38546;48.170;11.724;2023-05-20T12:59:37;9.00;;;7.77;;
3487;SDS011;38546;48.170;11.724;2023-05-20T13:02:26;12.40;;;8.90;;
3487;SDS011;38546;48.170;11.724;2023-05-20T13:05:15;9.67;;;8.00;;
3487;SDS011;38546;48.170;11.724;2023-05-20T13:08:05;8.90;;;7.90;;
3487;SDS011;38546;48.170;11.724;2023-05-20T13:10:56;11.63;;;9.60;;
3487;SDS011;38546;48.170;11.724;2023-05-20T13:13:45;10.93;;;8.70;;
3487;SDS011;38546;48.170;11.724;2023-05-20T13:16:34;9.23;;;7.93;;
3487;SDS011;38546;48.170;11.724;2023-05-20T13:19:23;11.03;;;9.07;;
3487;SDS011;38546;48.170;11.724;2023-05-20T13:22:13;10.63;;;8.37;;
3487;SDS011;38546;48.170;11.724;2023-05-20T13:25:02;13.60;;;9.00;;
3487;SDS011;38546;48.170;11.724;2023-05-20T13:27:52;11.00;;;9.00;;
3487;SDS011;38546;48.170;11.724;2023-05-20T13:30:42;11.90;;;8.30;;
3487;SDS011;38546;48.170;11.724;2023-05-20T13:33:31;10.47;;;8.00;;
3487;SDS011;38546;48.170;11.724;2023-05-20T13:36:21;10.53;;;8.70;;
3487;SDS011;38546;48.170;11.724;2023-05-20T13:39:10;9.57;;;8.50;;
3487;SDS011;38546;48.170;11.724;2023-05-20T13:41:59;12.47;;;9.03;;
3487;SDS011;38546;48.170;11.724;2023-05-20T13:44:48;11.13;;;8.47;;
3487;SDS011;38546;48.170;11.724;2023-05-20T13:47:38;12.27;;;8.70;;
3487;SDS011;38546;48.170;11.724;2023-05-20T13:50:27;15.83;;;10.60;;
3487;SDS011;38546;48.170;11.724;2023-05-20T13:53:16;14.77;;;11.37;;
3487;SDS011;38546;48.170;11.724;2023-05-20T13:56:04;11.33;;;8.67;;
3487;SDS011;38546;48.170;11.724;2023-05-20T13:58:56;11.03;;;9.20;;
3487;SDS011;38546;48.170;11.724;2023-05-20T14:01:45;11.90;;;9.97;;
3487;SDS011;38546;48.170;11.724;2023-05-20T14:04:34;12.47;;;10.33;;
3487;SDS011;38546;48.170;11.724;2023-05-20T14:07:26;11.70;;;9.90;;
3487;SDS011;38546;48.170;11.724;2023-05-20T14:10:16;11.60;;;9.53;;
3487;SDS011;38546;48.170;11.724;2023-05-20T14:13:05;16.27;;;9.60;;
3487;SDS011;38546;48.170;11.724;2023-05-20T14:15:56;10.05;;;8.70;;
3487;SDS011;38546;48.170;11.724;2023-05-20T14:18:45;16.30;;;11.90;;
3487;SDS011;38546;48.170;11.724;2023-05-20T14:21:34;14.50;;;10.17;;
3487;SDS011;38546;48.170;11.724;2023-05-20T14:24:23;10.37;;;9.23;;
3487;SDS011;38546;48.170;11.724;2023-05-20T14:27:12;11.10;;;9.60;;
3487;SDS011;38546;48.170;11.724;2023-05-20T14:30:02;12.50;;;10.00;;
3487;SDS011;38546;48.170;11.724;2023-05-20T14:32:53;11.13;;;9.30;;
3487;SDS011;38546;48.170;11.724;2023-05-20T14:35:42;12.43;;;9.13;;
3487;SDS011;38546;48.170;11.724;2023-05-20T14:38:31;12.70;;;9.80;;
3487;SDS011;38546;48.170;11.724;2023-05-20T14:41:20;14.43;;;10.20;;
3487;SDS011;38546;48.170;11.724;2023-05-20T14:44:10;14.10;;;10.10;;
3487;SDS011;38546;48.170;11.724;2023-05-20T14:46:59;13.27;;;11.07;;
3487;SDS011;38546;48.170;11.724;2023-05-20T14:49:48;12.33;;;9.27;;
3487;SDS011;38546;48.170;11.724;2023-05-20T14:52:37;14.73;;;9.67;;
3487;SDS011;38546;48.170;11.724;2023-05-20T14:55:26;10.77;;;9.63;;
3487;SDS011;38546;48.170;11.724;2023-05-20T14:58:15;12.67;;;10.27;;
3487;SDS011;38546;48.170;11.724;2023-05-20T15:01:04;13.90;;;10.50;;
3487;SDS011;38546;48.170;11.724;2023-05-20T15:03:53;15.23;;;10.60;;
3487;SDS011;38546;48.170;11.724;2023-05-20T15:06:42;13.80;;;10.17;;
3487;SDS011;38546;48.170;11.724;2023-05-20T15:09:31;12.90;;;10.13;;
3487;SDS011;38546;48.170;11.724;2023-05-20T15:12:22;13.43;;;10.20;;
3487;SDS011;38546;48.170;11.724;2023-05-20T15:15:11;13.77;;;9.97;;
3487;SDS011;38546;48.170;11.724;2023-05-20T15:18:00;10.93;;;8.80;;
3487;SDS011;38546;48.170;11.724;2023-05-20T15:20:50;18.13;;;10.20;;
3487;SDS011;38546;48.170;11.724;2023-05-20T15:23:39;9.40;;;8.37;;
3487;SDS011;38546;48.170;11.724;2023-05-20T15:26:29;13.90;;;10.13;;
3487;SDS011;38546;48.170;11.724;2023-05-20T15:29:19;8.80;;;7.87;;
3487;SDS011;38546;48.170;11.724;2023-05-20T15:32:09;10.70;;;9.60;;
3487;SDS011;38546;48.170;11.724;2023-05-20T15:34:58;10.90;;;9.13;;
3487;SDS011;38546;48.170;11.724;2023-05-20T15:37:48;10.40;;;8.50;;
3487;SDS011;38546;48.170;11.724;2023-05-20T15:40:37;11.23;;;9.63;;
3487;SDS011;38546;48.170;11.724;2023-05-20T15:43:27;13.40;;;10.60;;
3487;SDS011;38546;48.170;11.724;2023-05-20T15:46:15;13.80;;;9.73;;
3487;SDS011;38546;48.170;11.724;2023-05-20T15:49:05;15.47;;;8.77;;
3487;SDS011;38546;48.170;11.724;2023-05-20T15:51:54;12.43;;;9.50;;
3487;SDS011;38546;48.170;11.724;2023-05-20T15:54:44;10.40;;;9.07;;
3487;SDS011;38546;48.170;11.724;2023-05-20T15:57:33;11.90;;;9.97;;
3487;SDS011;38546;48.170;11.724;2023-05-20T16:00:22;14.80;;;9.30;;
3487;SDS011;38546;48.170;11.724;2023-05-20T16:03:11;13.93;;;9.73;;
3487;SDS011;38546;48.170;11.724;2023-05-20T16:06:00;15.57;;;10.03;;
3487;SDS011;38546;48.170;11.724;2023-05-20T16:08:49;11.73;;;8.77;;
3487;SDS011;38546;48.170;11.724;2023-05-20T16:11:38;10.27;;;9.10;;
3487;SDS011;38546;48.170;11.724;2023-05-20T16:14:27;10.63;;;8.57;;
3487;SDS011;38546;48.170;11.724;2023-05-20T16:17:16;13.70;;;10.13;;
3487;SDS011;38546;48.170;11.724;2023-05-20T16:20:08;12.50;;;8.80;;
3487;SDS011;38546;48.170;11.724;2023-05-20T16:22:58;13.70;;;9.70;;
3487;SDS011;38546;48.170;11.724;2023-05-20T16:25:47;15.13;;;9.80;;
3487;SDS011;38546;48.170;11.724;2023-05-20T16:28:37;14.47;;;9.53;;
3487;SDS011;38546;48.170;11.724;2023-05-20T16:31:26;13.50;;;10.10;;
3487;SDS011;38546;48.170;11.724;2023-05-20T16:34:15;11.87;;;9.80;;
3487;SDS011;38546;48.170;11.724;2023-05-20T16:37:04;11.60;;;9.40;;
3487;SDS011;38546;48.170;11.724;2023-05-20T16:39:53;14.53;;;9.90;;
3487;SDS011;38546;48.170;11.724;2023-05-20T16:42:43;14.27;;;10.67;;
3487;SDS011;38546;48.170;11.724;2023-05-20T16:45:32;15.37;;;10.60;;
3487;SDS011;38546;48.170;11.724;2023-05-20T16:48:21;13.57;;;10.03;;
3487;SDS011;38546;48.170;11.724;2023-05-20T16:51:11;12.67;;;9.20;;
3487;SDS011;38546;48.170;11.724;2023-05-20T16:54:00;11.63;;;9.40;;
3487;SDS011;38546;48.170;11.724;2023-05-20T16:56:49;14.70;;;10.23;;
3487;SDS011;38546;48.170;11.724;2023-05-20T16:59:37;11.50;;;9.50;;